Time;durP1;ratioP1;P1;durP2;ratioP2;P2;SDS_P1;SDS_P2;PMS_P1;PMS_P2;Temp;Humidity;BMP_temperature;BMP_pressure;BME280_temperature;BME280_humidity;BME280_pressure;Samples;Min_cycle;Max_cycle;Signal;HPM_P1;HPM_P2
2022/03/15 00:00:02;;;;;;;13.13;10.87;;;;;;;-1.36;100.00;97622.59;5033066;28;20462;-73
2022/03/15 00:02:39;;;;;;;19.23;10.30;;;;;;;-1.12;100.00;97651.28;5032297;28;20924;-73
2022/03/15 00:05:07;;;;;;;12.50;11.07;;;;;;;-1.13;100.00;97653.06;5032518;28;21285;-73
2022/03/15 00:07:33;;;;;;;20.60;12.20;;;;;;;-1.19;100.00;97633.19;5031918;28;20426;-73
2022/03/15 00:10:00;;;;;;;17.10;12.00;;;;;;;-1.33;100.00;97629.97;5030793;28;20451;-73
2022/03/15 00:12:29;;;;;;;16.90;11.43;;;;;;;-1.18;100.00;97659.94;5020777;28;20467;-73
2022/03/15 00:14:56;;;;;;;12.93;9.90;;;;;;;-3.15;100.00;97423.38;5031417;28;20490;-73
2022/03/15 00:17:24;;;;;;;11.20;9.53;;;;;;;-1.51;100.00;97650.72;5031660;28;20486;-73
2022/03/15 00:19:51;;;;;;;11.87;8.87;;;;;;;-1.60;100.00;97644.25;5015118;28;20463;-73
2022/03/15 00:30:57;;;;;;;12.10;8.33;;;;;;;-1.60;100.00;97645.03;5015523;28;20409;-73
2022/03/15 00:33:26;;;;;;;15.10;10.20;;;;;;;-1.87;100.00;97618.59;5023361;28;20842;-73
2022/03/15 00:35:54;;;;;;;17.10;13.47;;;;;;;-1.83;100.00;97618.94;5029044;28;20443;-73
2022/03/15 00:38:22;;;;;;;16.60;10.60;;;;;;;-1.59;100.00;97646.63;5032530;28;20431;-73
2022/03/15 00:40:51;;;;;;;11.93;8.20;;;;;;;-1.88;100.00;97616.19;5012733;28;20473;-73
2022/03/15 00:43:20;;;;;;;11.73;8.53;;;;;;;-1.95;100.00;97623.25;5020601;28;20810;-73
2022/03/15 00:45:48;;;;;;;14.40;9.87;;;;;;;-2.04;100.00;97620.13;5017721;28;20525;-73
2022/03/15 00:48:15;;;;;;;10.90;9.33;;;;;;;-1.81;100.00;97624.69;5031037;28;20439;-73
2022/03/15 00:50:43;;;;;;;16.07;9.93;;;;;;;-1.75;100.00;97610.06;5018917;28;20426;-73
2022/03/15 00:53:10;;;;;;;19.40;9.57;;;;;;;-1.42;100.00;97641.63;5047491;28;20992;-73
2022/03/15 00:55:38;;;;;;;21.13;10.07;;;;;;;-1.58;100.00;97613.69;5028697;28;20476;-73
2022/03/15 00:58:05;;;;;;;12.10;9.03;;;;;;;-1.40;100.00;97620.66;5034400;28;20432;-73
2022/03/15 01:00:35;;;;;;;11.40;8.77;;;;;;;-1.47;100.00;97612.94;5030266;28;20442;-73
2022/03/15 01:03:03;;;;;;;14.03;8.57;;;;;;;-1.46;100.00;97631.94;5021428;28;20494;-73
2022/03/15 01:05:30;;;;;;;11.70;8.17;;;;;;;-2.07;100.00;97594.66;5014077;28;20471;-73
2022/03/15 01:12:09;;;;;;;11.17;7.63;;;;;;;-1.71;100.00;97632.00;5031749;28;20473;-73
2022/03/15 01:14:36;;;;;;;16.07;10.10;;;;;;;-1.70;100.00;97615.44;5031417;28;20471;-73
2022/03/15 01:17:05;;;;;;;10.10;7.87;;;;;;;-1.76;100.00;97598.13;5031620;28;20444;-73
2022/03/15 01:19:32;;;;;;;13.33;9.73;;;;;;;-1.44;100.00;97624.72;5033642;28;20501;-73
2022/03/15 01:21:59;;;;;;;10.97;9.00;;;;;;;-2.56;100.00;97505.66;5030387;28;20427;-73
2022/03/15 01:24:27;;;;;;;13.30;9.13;;;;;;;-1.71;100.00;97617.22;5046536;28;20463;-73
2022/03/15 01:26:54;;;;;;;13.30;8.03;;;;;;;-1.69;100.00;97617.00;5031602;28;20427;-73
2022/03/15 01:29:22;;;;;;;11.50;8.33;;;;;;;-1.61;100.00;97611.50;5030175;28;20436;-73
2022/03/15 01:31:49;;;;;;;9.87;8.20;;;;;;;-1.73;100.00;97614.06;5030223;28;20462;-73
2022/03/15 01:34:16;;;;;;;9.37;6.50;;;;;;;-2.08;100.00;97575.72;5018010;28;20887;-73
2022/03/15 01:36:43;;;;;;;10.97;7.77;;;;;;;-1.99;100.00;97603.97;5030129;28;20447;-73
2022/03/15 01:47:27;;;;;;;8.90;7.40;;;;;;;-1.94;100.00;97597.13;5024336;28;20978;-73
2022/03/15 01:49:54;;;;;;;8.43;7.53;;;;;;;-2.03;100.00;97566.50;5031274;28;20447;-73
2022/03/15 01:52:21;;;;;;;14.53;7.47;;;;;;;-1.98;100.00;97584.81;5031055;28;20428;-73
2022/03/15 01:54:50;;;;;;;8.77;7.30;;;;;;;-1.90;100.00;97592.28;5013510;28;20455;-73
2022/03/15 01:57:18;;;;;;;11.77;8.37;;;;;;;-2.05;100.00;97569.31;5027306;28;20432;-73
2022/03/15 01:59:44;;;;;;;15.83;8.13;;;;;;;-2.08;100.00;97572.34;5029815;28;20826;-72
2022/03/15 02:02:12;;;;;;;11.10;8.20;;;;;;;-1.84;100.00;97589.66;5029739;28;20448;-72
2022/03/15 02:04:39;;;;;;;9.10;8.00;;;;;;;-1.92;100.00;97558.81;5030917;28;20789;-72
2022/03/15 02:07:09;;;;;;;8.00;6.70;;;;;;;-2.06;100.00;97549.59;5029726;28;20521;-72
2022/03/15 02:09:36;;;;;;;8.47;6.50;;;;;;;-1.75;100.00;97584.16;5029941;28;20482;-72
2022/03/15 02:12:03;;;;;;;11.53;8.43;;;;;;;-1.51;100.00;97588.47;5046271;28;20452;-72
2022/03/15 02:14:30;;;;;;;15.77;9.50;;;;;;;-1.52;100.00;97590.28;5030922;28;20758;-72
2022/03/15 02:16:57;;;;;;;15.07;9.80;;;;;;;-1.71;100.00;97580.16;5013327;28;20546;-72
2022/03/15 02:19:24;;;;;;;13.77;10.53;;;;;;;-1.63;100.00;97587.63;5029927;28;20436;-72
2022/03/15 02:21:51;;;;;;;12.13;9.63;;;;;;;-1.77;100.00;97586.97;5030800;28;20519;-72
2022/03/15 02:24:18;;;;;;;11.67;10.43;;;;;;;-1.69;100.00;97581.50;5029873;28;20815;-72
2022/03/15 02:26:45;;;;;;;18.93;10.87;;;;;;;-1.66;100.00;97582.88;5047328;28;20443;-72
2022/03/15 02:29:11;;;;;;;13.57;10.30;;;;;;;-1.66;100.00;97583.66;5034879;28;20514;-72
2022/03/15 02:31:38;;;;;;;20.13;9.47;;;;;;;-1.79;100.00;97553.50;5033408;28;20442;-72
2022/03/15 02:38:17;;;;;;;11.80;8.67;;;;;;;-1.92;100.00;97540.69;5019832;28;20482;-71
2022/03/15 02:40:44;;;;;;;11.47;9.00;;;;;;;-2.09;100.00;97565.59;5032695;28;20432;-71
2022/03/15 02:43:11;;;;;;;11.60;9.47;;;;;;;-2.13;100.00;97561.84;5019079;28;20506;-71
2022/03/15 02:45:37;;;;;;;15.80;10.50;;;;;;;-2.24;100.00;97528.88;5028545;28;20997;-71
2022/03/15 02:48:04;;;;;;;12.90;8.90;;;;;;;-1.93;100.00;97566.81;5033467;28;20434;-72
2022/03/15 02:50:31;;;;;;;12.17;9.40;;;;;;;-2.05;100.00;97532.25;5033157;28;21042;-72
2022/03/15 02:52:58;;;;;;;10.50;9.47;;;;;;;-2.06;100.00;97539.25;5034775;28;20546;-72
2022/03/15 02:55:25;;;;;;;11.43;7.70;;;;;;;-1.79;100.00;97574.22;5033399;28;20596;-72
2022/03/15 02:57:52;;;;;;;15.20;8.50;;;;;;;-1.70;100.00;97563.59;5034549;28;20423;-72
2022/03/15 03:00:20;;;;;;;15.17;9.83;;;;;;;-1.88;100.00;97562.56;5068036;28;20534;-72
2022/03/15 03:02:47;;;;;;;13.93;9.33;;;;;;;-2.00;100.00;97559.13;5034280;28;20467;-72
2022/03/15 03:05:14;;;;;;;12.50;8.70;;;;;;;-1.97;100.00;97543.13;5016560;28;20494;-72
2022/03/15 03:07:41;;;;;;;13.63;8.40;;;;;;;-1.85;100.00;97554.38;5049361;28;20438;-72
2022/03/15 03:10:08;;;;;;;11.27;8.67;;;;;;;-1.72;100.00;97558.63;5032917;28;20456;-72
2022/03/15 03:12:35;;;;;;;13.43;8.30;;;;;;;-1.64;100.00;97550.53;5016424;28;20970;-72
2022/03/15 03:15:02;;;;;;;11.80;8.80;;;;;;;-1.76;100.00;97547.06;5032747;28;20467;-71
2022/03/15 03:17:30;;;;;;;11.57;7.60;;;;;;;-1.77;100.00;97534.34;5034152;28;20546;-72
2022/03/15 03:19:56;;;;;;;11.13;8.10;;;;;;;-1.71;100.00;97554.22;5034034;28;20518;-72
2022/03/15 03:22:23;;;;;;;10.70;8.93;;;;;;;-1.71;100.00;97549.81;5032836;28;20443;-72
2022/03/15 03:24:50;;;;;;;11.53;7.40;;;;;;;-1.85;100.00;97530.25;5016191;28;20513;-71
2022/03/15 03:27:17;;;;;;;9.67;7.70;;;;;;;-1.82;100.00;97538.38;5022703;28;20838;-72
2022/03/15 03:29:43;;;;;;;10.57;7.37;;;;;;;-1.68;100.00;97553.78;5032287;28;21000;-72
2022/03/15 03:32:10;;;;;;;13.00;9.67;;;;;;;-1.70;100.00;97545.44;5022416;28;20451;-72
2022/03/15 03:34:37;;;;;;;8.77;7.70;;;;;;;-1.97;100.00;97519.81;5012532;28;20531;-72
2022/03/15 03:37:05;;;;;;;11.07;8.43;;;;;;;-1.90;100.00;97551.63;5028854;28;20452;-72
2022/03/15 03:39:32;;;;;;;14.50;7.70;;;;;;;-2.05;100.00;97538.22;5029016;28;20446;-73
2022/03/15 03:41:59;;;;;;;9.07;6.93;;;;;;;-1.85;100.00;97548.41;5029199;28;20443;-72
2022/03/15 03:44:26;;;;;;;11.70;10.50;;;;;;;-2.41;100.00;97500.91;5025785;28;20492;-72
2022/03/15 03:46:53;;;;;;;13.67;6.67;;;;;;;-2.30;100.00;97527.91;5013887;28;20456;-72
2022/03/15 03:49:19;;;;;;;12.00;8.00;;;;;;;-2.01;100.00;97538.59;5001177;28;20439;-72
2022/03/15 03:51:46;;;;;;;10.93;7.37;;;;;;;-1.93;100.00;97548.66;5033638;28;20436;-72
2022/03/15 03:54:13;;;;;;;13.10;7.43;;;;;;;-2.29;100.00;97498.41;5015713;28;20560;-71
2022/03/15 03:56:39;;;;;;;9.70;7.17;;;;;;;-2.34;100.00;97507.84;5015901;28;20447;-72
2022/03/15 03:59:08;;;;;;;10.70;8.40;;;;;;;-1.88;100.00;97531.44;5032043;28;20427;-72
2022/03/15 04:01:34;;;;;;;12.83;7.80;;;;;;;-1.94;100.00;97534.13;5032015;28;20531;-72
2022/03/15 04:04:05;;;;;;;13.60;8.20;;;;;;;-1.89;100.00;97536.84;5032049;28;20523;-72
2022/03/15 04:06:32;;;;;;;11.63;8.50;;;;;;;-2.03;100.00;97512.09;5031941;28;20442;-72
2022/03/15 04:08:59;;;;;;;17.77;7.83;;;;;;;-1.86;100.00;97537.25;5033171;28;20535;-72
2022/03/15 04:11:28;;;;;;;7.10;6.40;;;;;;;-2.01;100.00;97518.66;5065169;28;20531;-72
2022/03/15 04:13:55;;;;;;;11.10;9.40;;;;;;;-2.20;100.00;97498.94;5015335;28;20483;-72
2022/03/15 04:16:27;;;;;;;13.60;8.00;;;;;;;-2.26;100.00;97489.44;5033048;28;20428;-72
2022/03/15 04:18:54;;;;;;;8.33;7.33;;;;;;;-2.08;100.00;97528.31;5033112;28;20424;-72
2022/03/15 04:21:24;;;;;;;8.50;7.10;;;;;;;-2.18;100.00;97504.69;5016457;28;20450;-72
2022/03/15 04:23:53;;;;;;;8.17;7.37;;;;;;;-2.16;100.00;97528.56;5032677;28;20505;-72
2022/03/15 04:26:24;;;;;;;12.00;7.10;;;;;;;-2.34;100.00;97484.53;5019160;28;20480;-72
2022/03/15 04:28:53;;;;;;;11.03;6.53;;;;;;;-2.02;100.00;97521.47;5049324;28;20486;-73
2022/03/15 04:31:21;;;;;;;9.90;6.43;;;;;;;-2.06;100.00;97515.13;5032776;28;20531;-73
2022/03/15 04:33:48;;;;;;;10.10;7.73;;;;;;;-2.04;100.00;97534.63;5022399;28;20494;-73
2022/03/15 04:36:15;;;;;;;7.50;6.70;;;;;;;-2.31;100.00;97484.09;4999608;28;20473;-73
2022/03/15 04:38:42;;;;;;;11.50;6.93;;;;;;;-2.17;100.00;97488.13;5024540;28;20428;-72
2022/03/15 04:41:09;;;;;;;8.90;7.30;;;;;;;-2.06;100.00;97522.91;5047652;28;20523;-72
2022/03/15 04:43:36;;;;;;;7.23;6.53;;;;;;;-1.92;100.00;97517.34;5032462;28;20518;-72
2022/03/15 04:46:06;;;;;;;9.20;7.63;;;;;;;-1.89;100.00;97521.31;5031336;28;20527;-72
2022/03/15 04:48:33;;;;;;;8.23;6.67;;;;;;;-2.05;100.00;97490.81;5030884;28;20478;-72
2022/03/15 04:51:05;;;;;;;12.53;7.13;;;;;;;-1.92;100.00;97517.34;5031962;28;20427;-72
2022/03/15 04:53:31;;;;;;;8.33;7.60;;;;;;;-1.91;100.00;97520.75;5032223;28;20558;-72
2022/03/15 04:55:58;;;;;;;12.10;7.13;;;;;;;-2.00;100.00;97496.94;5030768;28;20446;-72
2022/03/15 04:58:25;;;;;;;9.13;7.00;;;;;;;-2.23;100.00;97518.28;5032146;28;20816;-72
2022/03/15 05:00:54;;;;;;;12.90;8.07;;;;;;;-2.32;100.00;97495.47;5064074;28;20535;-72
2022/03/15 05:03:20;;;;;;;7.60;6.77;;;;;;;-2.13;100.00;97510.03;5014533;28;20439;-73
2022/03/15 05:05:47;;;;;;;6.83;6.13;;;;;;;-2.23;100.00;97509.75;5014338;28;20463;-72
2022/03/15 05:08:14;;;;;;;11.37;7.80;;;;;;;-1.94;100.00;97510.81;5030752;28;20436;-72
2022/03/15 05:13:26;;;;;;;8.93;8.07;;;;;;;-2.10;100.00;97481.09;5030311;28;20462;-72
2022/03/15 05:15:53;;;;;;;12.33;8.00;;;;;;;-1.90;100.00;97480.84;5030462;28;20970;-72
2022/03/15 05:18:20;;;;;;;14.23;9.63;;;;;;;-1.90;100.00;97499.00;5031907;28;20426;-72
2022/03/15 05:20:47;;;;;;;12.70;10.00;;;;;;;-1.90;100.00;97504.19;5063788;28;20435;-72
2022/03/15 05:23:14;;;;;;;12.37;10.50;;;;;;;-1.91;100.00;97472.28;5031593;28;20430;-72
2022/03/15 05:25:40;;;;;;;11.30;8.63;;;;;;;-1.82;100.00;97502.09;5030279;28;20460;-72
2022/03/15 05:28:08;;;;;;;13.10;8.80;;;;;;;-1.90;100.00;97501.59;5029724;28;20800;-72
2022/03/15 05:30:38;;;;;;;14.93;10.00;;;;;;;-1.98;100.00;97500.09;5023232;28;20512;-72
2022/03/15 05:33:05;;;;;;;12.63;10.10;;;;;;;-1.92;100.00;97503.59;5025133;28;20536;-72
2022/03/15 05:35:33;;;;;;;14.00;10.60;;;;;;;-2.20;100.00;97489.38;5023575;28;20550;-72
2022/03/15 05:38:02;;;;;;;15.77;10.30;;;;;;;-2.29;100.00;97476.91;5017154;28;20976;-72
2022/03/15 05:40:29;;;;;;;12.53;11.10;;;;;;;-2.09;100.00;97485.28;5031506;28;20432;-72
2022/03/15 05:42:56;;;;;;;20.00;11.00;;;;;;;-1.89;100.00;97501.38;5031369;28;20439;-72
2022/03/15 05:45:25;;;;;;;13.00;10.30;;;;;;;-1.86;100.00;97488.00;5030007;28;20486;-72
2022/03/15 05:47:52;;;;;;;17.67;12.83;;;;;;;-1.96;100.00;97463.59;5030029;28;20471;-72
2022/03/15 05:50:20;;;;;;;18.97;12.00;;;;;;;-1.60;100.00;97488.69;5000685;28;20484;-72
2022/03/15 05:52:46;;;;;;;17.43;13.43;;;;;;;-1.97;100.00;97456.84;5026776;28;20535;-72
2022/03/15 05:55:13;;;;;;;25.03;17.47;;;;;;;-1.83;100.00;97472.00;5025047;28;20471;-72
2022/03/15 05:57:40;;;;;;;19.30;14.27;;;;;;;-1.81;100.00;97458.81;5030117;28;20517;-72
2022/03/15 06:00:08;;;;;;;19.80;14.80;;;;;;;-1.80;100.00;97468.97;5030028;28;20446;-73
2022/03/15 06:02:41;;;;;;;22.10;12.77;;;;;;;-1.58;100.00;97471.09;5030692;28;20427;-72
2022/03/15 06:05:10;;;;;;;19.47;15.00;;;;;;;-1.57;100.00;97472.69;5029745;28;20581;-72
2022/03/15 06:07:45;;;;;;;20.67;13.77;;;;;;;-1.57;100.00;97462.31;5031284;28;20872;-72
2022/03/15 06:10:12;;;;;;;17.23;12.53;;;;;;;-1.29;100.00;97472.09;5013150;28;20541;-72
2022/03/15 06:12:40;;;;;;;20.80;14.17;;;;;;;-1.35;100.00;97475.56;5019847;28;20459;-72
2022/03/15 06:15:08;;;;;;;17.50;12.47;;;;;;;-1.30;100.00;97460.91;5030851;28;20474;-72
2022/03/15 06:17:46;;;;;;;17.70;11.63;;;;;;;-1.25;100.00;97468.81;5029696;28;20963;-72
2022/03/15 06:20:15;;;;;;;20.57;13.50;;;;;;;-1.35;100.00;97468.56;5030966;28;20487;-72
2022/03/15 06:22:46;;;;;;;21.70;13.10;;;;;;;-1.17;100.00;97478.09;5029679;28;20961;-73
2022/03/15 06:25:17;;;;;;;23.80;14.57;;;;;;;-1.09;100.00;97479.56;5029431;28;20455;-72
2022/03/15 06:27:48;;;;;;;18.70;16.53;;;;;;;-1.10;100.00;97471.00;5029437;28;20873;-72
2022/03/15 06:30:16;;;;;;;16.37;13.23;;;;;;;-1.16;100.00;97479.69;5029680;28;20957;-72
2022/03/15 06:32:43;;;;;;;18.63;12.50;;;;;;;-1.32;100.00;97482.91;5016320;28;21364;-71
2022/03/15 06:35:12;;;;;;;22.37;12.00;;;;;;;-1.15;100.00;97463.09;5051209;28;20475;-72
2022/03/15 06:37:45;;;;;;;18.40;14.97;;;;;;;-1.03;100.00;97476.09;5029350;28;20475;-72
2022/03/15 06:40:15;;;;;;;20.17;13.73;;;;;;;-1.15;100.00;97457.91;5030763;28;20455;-72
2022/03/15 06:42:44;;;;;;;14.93;13.47;;;;;;;-1.05;100.00;97454.78;5029430;28;20419;-72
2022/03/15 06:45:11;;;;;;;32.73;28.30;;;;;;;-1.22;100.00;97464.97;5029251;28;20495;-71
2022/03/15 06:47:39;;;;;;;19.87;14.23;;;;;;;-0.91;100.00;97469.13;5029109;28;20478;-71
2022/03/15 06:50:08;;;;;;;21.07;17.03;;;;;;;-0.87;100.00;97470.25;5030547;28;20424;-71
2022/03/15 06:52:36;;;;;;;26.40;15.87;;;;;;;-1.16;100.00;97427.78;5057643;28;20427;-72
2022/03/15 06:55:04;;;;;;;21.80;16.93;;;;;;;-0.89;100.00;97464.50;5042409;28;20464;-71
2022/03/15 06:57:32;;;;;;;24.97;16.17;;;;;;;-0.92;100.00;97459.75;5028378;28;20457;-72
2022/03/15 07:00:00;;;;;;;23.53;15.60;;;;;;;-0.95;100.00;97448.00;5012793;28;20841;-72
2022/03/15 07:02:27;;;;;;;19.60;15.47;;;;;;;-0.81;100.00;97458.94;5029140;28;20465;-72
2022/03/15 07:04:54;;;;;;;22.40;14.83;;;;;;;-0.76;100.00;97460.88;5028971;28;20460;-72
2022/03/15 07:07:21;;;;;;;25.20;18.23;;;;;;;-0.78;100.00;97442.94;5029222;28;20470;-72
2022/03/15 07:09:47;;;;;;;27.43;15.60;;;;;;;-0.81;100.00;97432.19;5015616;28;20953;-72
2022/03/15 07:12:14;;;;;;;20.83;14.00;;;;;;;-0.91;100.00;97415.41;5029314;28;20522;-72
2022/03/15 07:14:41;;;;;;;21.80;13.37;;;;;;;-0.67;100.00;97436.13;5002920;28;20472;-72
2022/03/15 07:17:08;;;;;;;24.20;14.60;;;;;;;-0.63;100.00;97448.47;5032859;28;20518;-72
2022/03/15 07:19:35;;;;;;;23.27;13.43;;;;;;;-0.48;100.00;97447.22;5033000;28;20444;-72
2022/03/15 07:22:02;;;;;;;18.57;12.70;;;;;;;-0.52;100.00;97448.69;5024654;28;20441;-72
2022/03/15 07:24:28;;;;;;;22.23;14.47;;;;;;;-0.47;100.00;97452.19;5030442;28;20551;-72
2022/03/15 07:26:55;;;;;;;24.47;17.30;;;;;;;-0.30;100.00;97416.69;5032384;28;20971;-72
2022/03/15 07:29:21;;;;;;;25.23;20.23;;;;;;;0.10;100.00;97451.50;5030887;28;20463;-72
2022/03/15 07:31:49;;;;;;;22.17;16.87;;;;;;;-0.01;100.00;97429.69;5021057;28;20431;-73
2022/03/15 07:34:16;;;;;;;23.30;16.13;;;;;;;-0.11;100.00;97425.13;5018804;28;20564;-73
2022/03/15 07:36:42;;;;;;;20.57;15.30;;;;;;;-0.19;100.00;97424.69;5032150;28;20531;-73
2022/03/15 07:39:09;;;;;;;20.23;13.30;;;;;;;-0.34;100.00;97404.38;5033466;28;20426;-73
2022/03/15 07:41:38;;;;;;;24.73;15.43;;;;;;;-0.16;100.00;97421.63;5032143;28;20827;-73
2022/03/15 07:44:10;;;;;;;22.20;17.30;;;;;;;-0.18;100.00;97390.66;5031941;28;20466;-73
2022/03/15 07:46:37;;;;;;;23.40;16.53;;;;;;;0.05;100.00;97407.22;5032110;28;20529;-73
2022/03/15 07:49:07;;;;;;;23.73;16.10;;;;;;;0.18;100.00;97401.72;5015673;28;20432;-73
2022/03/15 07:51:34;;;;;;;19.07;17.17;;;;;;;0.34;100.00;97411.38;4996056;28;20438;-73
2022/03/15 07:54:01;;;;;;;17.60;15.53;;;;;;;0.61;100.00;97416.78;4999476;28;20470;-73
2022/03/15 07:56:27;;;;;;;24.83;16.50;;;;;;;0.89;100.00;97415.94;5031844;28;20890;-73
2022/03/15 07:58:54;;;;;;;22.97;16.33;;;;;;;0.70;100.00;97404.97;5029754;28;20793;-73
2022/03/15 08:01:20;;;;;;;21.47;16.27;;;;;;;0.72;100.00;97410.72;5031778;28;20484;-73
2022/03/15 08:03:48;;;;;;;24.77;17.07;;;;;;;0.82;100.00;97407.50;5031609;28;20485;-73
2022/03/15 08:06:17;;;;;;;22.23;15.90;;;;;;;0.74;100.00;97392.25;5033118;28;20928;-73
2022/03/15 08:08:43;;;;;;;20.33;16.40;;;;;;;0.86;100.00;97387.78;5018349;28;20494;-73
2022/03/15 08:11:10;;;;;;;22.40;15.93;;;;;;;0.96;100.00;97387.94;5031557;28;20451;-73
2022/03/15 08:13:37;;;;;;;22.43;17.27;;;;;;;1.16;100.00;97385.59;5031893;28;20467;-73
2022/03/15 08:16:05;;;;;;;20.43;14.50;;;;;;;1.68;100.00;97416.50;5031677;28;20912;-73
2022/03/15 08:18:32;;;;;;;19.80;16.77;;;;;;;1.85;100.00;97413.06;5031818;28;20447;-73
2022/03/15 08:20:59;;;;;;;19.73;15.57;;;;;;;1.98;100.00;97423.13;5031821;28;20439;-73
2022/03/15 08:23:27;;;;;;;18.57;14.83;;;;;;;2.04;100.00;97427.38;5031336;28;20440;-72
2022/03/15 08:25:56;;;;;;;17.80;12.70;;;;;;;2.14;100.00;97424.88;5032298;28;20427;-73
2022/03/15 08:28:24;;;;;;;16.80;12.23;;;;;;;1.90;100.00;97393.06;5031623;28;20436;-72
2022/03/15 08:30:52;;;;;;;16.77;11.87;;;;;;;2.06;100.00;97422.69;5031360;28;20439;-72
2022/03/15 08:33:19;;;;;;;18.30;12.50;;;;;;;2.16;100.00;97424.63;5025929;28;20428;-72
2022/03/15 08:35:46;;;;;;;14.03;12.20;;;;;;;2.22;100.00;97428.88;5041160;28;21001;-72
2022/03/15 08:38:14;;;;;;;13.40;10.60;;;;;;;2.19;100.00;97427.53;5032668;28;20525;-72
2022/03/15 08:40:41;;;;;;;18.93;11.70;;;;;;;2.12;100.00;97428.75;5032550;28;20432;-72
2022/03/15 08:43:08;;;;;;;19.50;11.33;;;;;;;2.20;100.00;97423.91;5032580;28;20858;-72
2022/03/15 08:45:35;;;;;;;13.87;10.70;;;;;;;2.26;100.00;97422.13;5031235;28;20456;-72
2022/03/15 08:48:03;;;;;;;12.93;11.53;;;;;;;2.39;100.00;97426.94;5031101;28;20445;-72
2022/03/15 08:50:30;;;;;;;13.27;10.13;;;;;;;2.56;100.00;97398.94;5031069;28;20428;-72
2022/03/15 08:52:57;;;;;;;16.97;11.47;;;;;;;2.90;100.00;97422.19;5011347;28;20481;-72
2022/03/15 08:55:26;;;;;;;21.60;11.10;;;;;;;3.02;100.00;97414.97;5025762;28;20474;-72
2022/03/15 08:57:53;;;;;;;17.87;13.07;;;;;;;3.08;100.00;97408.75;5027770;28;20436;-72
2022/03/15 09:00:21;;;;;;;21.57;12.23;;;;;;;3.18;100.00;97411.41;5030902;28;20475;-72
2022/03/15 09:02:48;;;;;;;14.13;11.03;;;;;;;3.10;100.00;97392.81;5032160;28;20432;-72
2022/03/15 09:05:19;;;;;;;14.47;12.90;;;;;;;2.85;100.00;97367.31;5029894;28;20447;-72
2022/03/15 09:07:50;;;;;;;23.63;12.43;;;;;;;3.06;100.00;97399.56;5044224;28;21051;-72
2022/03/15 09:10:21;;;;;;;25.53;14.93;;;;;;;3.11;100.00;97397.78;5028658;28;20447;-72
2022/03/15 09:12:49;;;;;;;26.33;17.07;;;;;;;3.16;100.00;97383.97;5047190;28;20928;-72
2022/03/15 09:15:16;;;;;;;27.50;15.37;;;;;;;3.33;100.00;97392.41;5031956;28;21292;-72
2022/03/15 09:17:43;;;;;;;15.80;13.90;;;;;;;3.49;100.00;97381.03;5030786;28;20435;-72
2022/03/15 09:20:22;;;;;;;18.90;14.30;;;;;;;3.89;100.00;97392.72;5031911;28;20507;-72
2022/03/15 09:22:49;;;;;;;15.83;12.70;;;;;;;3.99;100.00;97373.63;5030500;28;20542;-72
2022/03/15 09:25:17;;;;;;;17.87;14.60;;;;;;;4.01;100.00;97359.25;5030600;28;20454;-72
2022/03/15 09:27:44;;;;;;;28.97;13.67;;;;;;;4.17;100.00;97388.84;5017381;28;20914;-72
2022/03/15 09:30:11;;;;;;;14.47;12.10;;;;;;;4.07;100.00;97386.22;5030718;28;20438;-73
2022/03/15 09:32:38;;;;;;;14.13;11.90;;;;;;;3.84;100.00;97356.03;5029121;28;21030;-73
2022/03/15 09:35:06;;;;;;;20.83;11.60;;;;;;;4.07;100.00;97373.91;5051135;28;20985;-73
2022/03/15 09:37:33;;;;;;;15.10;12.50;;;;;;;4.32;100.00;97375.00;5030346;28;20424;-72
2022/03/15 09:40:08;;;;;;;15.73;12.37;;;;;;;4.60;100.00;97364.03;5030297;28;20436;-73
2022/03/15 09:42:36;;;;;;;22.67;13.03;;;;;;;4.70;100.00;97356.19;5031723;28;20432;-72
2022/03/15 09:45:04;;;;;;;13.30;11.60;;;;;;;4.81;100.00;97361.41;5031600;28;20853;-72
2022/03/15 09:47:34;;;;;;;13.00;11.60;;;;;;;4.90;100.00;97355.38;5060045;28;20444;-73
2022/03/15 09:50:06;;;;;;;19.23;11.07;;;;;;;4.83;100.00;97344.41;5026834;28;20445;-73
2022/03/15 09:52:34;;;;;;;18.20;11.00;;;;;;;4.87;100.00;97323.69;5023802;28;20440;-73
2022/03/15 09:55:03;;;;;;;15.30;11.67;;;;;;;5.10;100.00;97344.09;5010371;28;20472;-72
2022/03/15 09:57:33;;;;;;;20.43;11.33;;;;;;;5.16;100.00;97329.91;5029227;28;20448;-72
2022/03/15 10:00:00;;;;;;;16.13;11.37;;;;;;;5.28;100.00;97324.38;5030161;28;20443;-72
2022/03/15 10:02:27;;;;;;;15.47;11.07;;;;;;;5.31;100.00;97292.38;5031221;28;20432;-72
2022/03/15 10:04:59;;;;;;;11.20;9.67;;;;;;;5.55;100.00;97313.53;5031340;28;20506;-72
2022/03/15 10:07:25;;;;;;;8.90;7.20;;;;;;;5.84;100.00;97324.94;5013569;28;20436;-72
2022/03/15 10:09:52;;;;;;;9.53;6.80;;;;;;;5.92;100.00;97328.88;5029739;28;21015;-72
2022/03/15 10:12:20;;;;;;;15.03;7.83;;;;;;;5.98;100.00;97306.00;5029942;28;20443;-72
2022/03/15 10:14:48;;;;;;;13.53;7.97;;;;;;;6.01;100.00;97301.00;5000345;28;20460;-72
2022/03/15 10:17:16;;;;;;;8.60;6.77;;;;;;;6.22;100.00;97312.13;5046100;28;20444;-72
2022/03/15 10:19:53;;;;;;;8.47;6.97;;;;;;;6.21;100.00;97285.09;5013505;28;20495;-72
2022/03/15 10:22:25;;;;;;;16.27;7.10;;;;;;;6.58;100.00;97312.66;5020272;28;20429;-72
2022/03/15 10:24:52;;;;;;;8.10;6.53;;;;;;;6.49;100.00;97290.66;5026977;28;20464;-72
2022/03/15 10:27:19;;;;;;;7.60;5.33;;;;;;;6.73;100.00;97290.72;5029758;28;20429;-72
2022/03/15 10:29:47;;;;;;;6.70;6.10;;;;;;;6.95;100.00;97301.56;5029838;28;20463;-72
2022/03/15 10:32:16;;;;;;;9.23;6.47;;;;;;;7.00;100.00;97308.59;5029634;28;20526;-72
2022/03/15 10:34:43;;;;;;;7.13;6.10;;;;;;;7.01;100.00;97302.28;5016012;28;20473;-72
2022/03/15 10:37:11;;;;;;;6.93;6.20;;;;;;;6.80;100.00;97299.03;5029669;28;20440;-72
2022/03/15 10:39:39;;;;;;;7.07;5.40;;;;;;;6.84;100.00;97279.06;5029707;28;20431;-72
2022/03/15 10:42:08;;;;;;;8.40;5.40;;;;;;;6.81;100.00;97292.72;5013214;28;20440;-72
2022/03/15 10:44:36;;;;;;;7.13;6.43;;;;;;;6.88;100.00;97289.78;5030756;28;20457;-72
2022/03/15 10:47:12;;;;;;;10.53;6.33;;;;;;;6.96;100.00;97287.34;5029663;28;20949;-71
2022/03/15 10:49:46;;;;;;;6.83;6.13;;;;;;;6.85;100.00;97280.63;5035033;28;21198;-72
2022/03/15 10:52:28;;;;;;;8.67;6.03;;;;;;;6.72;100.00;97262.88;5017501;28;20452;-71
2022/03/15 10:54:55;;;;;;;8.27;6.70;;;;;;;6.90;100.00;97272.66;5034980;28;20451;-71
2022/03/15 10:57:22;;;;;;;7.00;5.80;;;;;;;7.04;100.00;97270.16;5016880;28;20449;-72
2022/03/15 10:59:49;;;;;;;8.67;6.83;;;;;;;6.95;100.00;97267.38;5038512;28;20825;-72
2022/03/15 11:02:16;;;;;;;12.03;6.00;;;;;;;6.83;100.00;97238.06;5032288;28;20446;-71
2022/03/15 11:04:47;;;;;;;10.83;6.90;;;;;;;6.99;100.00;97239.44;5033192;28;20507;-72
2022/03/15 11:07:16;;;;;;;9.00;6.10;;;;;;;6.80;100.00;97207.84;5066495;28;20457;-72
2022/03/15 11:09:49;;;;;;;12.27;5.23;;;;;;;7.16;100.00;97241.63;5017743;28;20459;-72
2022/03/15 11:12:17;;;;;;;7.60;5.73;;;;;;;7.19;100.00;97203.44;5034107;28;20466;-72
2022/03/15 11:14:49;;;;;;;11.30;5.50;;;;;;;7.52;100.00;97234.06;5016378;28;20518;-72
2022/03/15 11:17:21;;;;;;;5.50;5.00;;;;;;;7.65;100.00;97225.47;5005393;28;20536;-72
2022/03/15 11:19:55;;;;;;;7.97;5.90;;;;;;;8.02;100.00;97223.13;5027745;28;20428;-71
2022/03/15 11:22:24;;;;;;;6.80;5.60;;;;;;;7.63;100.00;97164.44;5065934;28;20458;-71
2022/03/15 11:25:20;;;;;;;10.20;6.00;;;;;;;8.24;100.00;97215.38;5032705;28;20475;-71
2022/03/15 11:27:51;;;;;;;6.23;5.63;;;;;;;8.07;100.00;97171.13;5019202;28;20918;-71
2022/03/15 11:30:20;;;;;;;7.23;5.90;;;;;;;8.34;100.00;97183.63;5022462;28;20429;-71
2022/03/15 11:32:49;;;;;;;13.83;6.20;;;;;;;8.63;100.00;97167.53;5030481;28;20433;-71
2022/03/15 11:35:22;;;;;;;9.80;5.70;;;;;;;8.78;100.00;97169.09;5022564;28;20468;-71
2022/03/15 11:37:52;;;;;;;6.33;5.73;;;;;;;8.99;100.00;97185.31;5029725;28;20853;-72
2022/03/15 11:40:20;;;;;;;6.60;5.83;;;;;;;8.89;100.00;97165.19;5012497;28;20469;-72
2022/03/15 11:42:49;;;;;;;9.30;6.07;;;;;;;8.58;100.00;97120.19;5012442;28;20467;-72
2022/03/15 11:45:24;;;;;;;8.70;6.37;;;;;;;9.00;100.00;97150.72;5024358;28;21006;-72
2022/03/15 11:48:39;;;;;;;5.77;5.27;;;;;;;9.05;100.00;97152.47;5062758;28;20435;-72